Time;durP1;ratioP1;P1;durP2;ratioP2;P2;SDS_P1;SDS_P2;PMS_P1;PMS_P2;Temp;Humidity;BMP_temperature;BMP_pressure;BME280_temperature;BME280_humidity;BME280_pressure;Samples;Min_cycle;Max_cycle;Signal;HPM_P1;HPM_P2
2023/01/09 00:01:22;;;;;;;;;;;3.80;88.00;;;-151.14;100.00;62537.16;5016197;28;19921;-89
2023/01/09 00:03:50;;;;;;;;;;;3.80;88.00;;;-151.14;100.00;62537.16;5015881;28;19921;-89
2023/01/09 00:06:18;;;;;;;;;;;3.80;88.10;;;-151.14;100.00;62537.16;5016338;28;19927;-89
2023/01/09 00:08:46;;;;;;;;;;;3.80;88.00;;;-151.14;100.00;62537.16;5016365;28;20116;-89
2023/01/09 00:11:14;;;;;;;;;;;3.80;88.00;;;-151.14;100.00;62537.16;5049432;28;19921;-89
2023/01/09 00:13:41;;;;;;;;;;;3.80;88.00;;;-151.14;100.00;62537.16;5032282;28;19921;-89
2023/01/09 00:16:10;;;;;;;;;;;3.70;88.00;;;-151.14;100.00;62537.16;5016253;28;20116;-88
2023/01/09 00:18:39;;;;;;;;;;;3.70;88.00;;;-151.14;100.00;62537.16;5016071;28;20216;-88
2023/01/09 00:21:09;;;;;;;;;;;3.70;88.00;;;2.42;100.00;62537.16;5032771;28;19921;-88
2023/01/09 00:23:36;;;;;;;;;;;3.70;88.10;;;-151.14;100.00;62537.16;5015632;28;20221;-88
2023/01/09 00:26:05;;;;;;;;;;;3.70;88.00;;;-151.14;100.00;62537.16;5016196;28;19921;-88
2023/01/09 00:28:33;;;;;;;;;;;3.70;88.00;;;-151.14;100.00;62537.16;5016026;28;19944;-87
2023/01/09 00:31:02;;;;;;;;;;;3.70;88.00;;;-151.14;100.00;62537.16;5032692;28;19921;-88
2023/01/09 00:33:30;;;;;;;;;;;3.70;88.00;;;-151.14;100.00;62537.16;5015416;28;20119;-88
2023/01/09 00:36:00;;;;;;;;;;;3.70;87.90;;;-151.14;100.00;62537.16;5015924;28;20238;-88
2023/01/09 00:38:28;;;;;;;;;;;3.70;88.00;;;-151.14;100.00;62537.16;5032474;28;19927;-88
2023/01/09 00:40:55;;;;;;;;;;;3.70;88.10;;;-151.14;100.00;62537.16;4996419;28;19922;-88
2023/01/09 00:43:24;;;;;;;;;;;3.70;88.00;;;-151.14;100.00;62537.16;4995796;28;19921;-87
2023/01/09 00:45:52;;;;;;;;;;;3.70;87.90;;;-151.14;100.00;62537.16;5012571;28;19922;-88
2023/01/09 00:48:25;;;;;;;;;;;3.70;88.00;;;-151.14;100.00;62537.16;4996146;28;20116;-87
2023/01/09 00:50:53;;;;;;;;;;;3.70;88.00;;;-151.14;100.00;62537.16;4996307;28;19922;-89
2023/01/09 00:53:23;;;;;;;;;;;3.70;88.00;;;-151.14;100.00;62537.16;4995633;28;19922;-87
2023/01/09 00:55:51;;;;;;;;;;;3.70;88.00;;;-151.14;100.00;62537.16;4996239;28;19921;-89
2023/01/09 00:58:19;;;;;;;;;;;3.70;88.00;;;-151.14;100.00;62537.16;5012289;28;19922;-88
2023/01/09 01:00:47;;;;;;;;;;;3.70;88.00;;;-151.14;100.00;62537.16;4996007;28;20208;-89
2023/01/09 01:03:15;;;;;;;;;;;3.70;87.90;;;-151.14;100.00;62537.16;5011661;28;19928;-88
2023/01/09 01:08:29;;;;;;;;;;;3.70;88.10;;;-151.14;100.00;62537.16;5012304;28;19928;-88
2023/01/09 01:10:57;;;;;;;;;;;3.70;88.10;;;-151.14;100.00;62537.16;4996428;28;19921;-88
2023/01/09 01:13:25;;;;;;;;;;;3.70;88.10;;;-151.14;100.00;62537.16;5000809;28;19921;-88
2023/01/09 01:15:53;;;;;;;;;;;3.70;88.00;;;-151.14;100.00;62537.16;5038729;28;19927;-88
2023/01/09 01:18:21;;;;;;;;;;;3.70;88.00;;;-151.14;100.00;62537.16;5022991;28;19921;-88
2023/01/09 01:20:49;;;;;;;;;;;3.70;88.10;;;-151.14;100.00;62537.16;5039435;28;19921;-87
2023/01/09 01:23:17;;;;;;;;;;;3.70;88.20;;;18.10;100.00;62537.16;5038859;28;19921;-88
2023/01/09 01:25:46;;;;;;;;;;;3.70;88.10;;;-151.14;100.00;62537.16;5033945;28;19928;-88
2023/01/09 01:28:14;;;;;;;;;;;3.70;88.10;;;18.08;100.00;62537.16;5015275;28;19927;-89
2023/01/09 01:30:42;;;;;;;;;;;3.70;88.10;;;-151.14;100.00;62537.16;5032632;28;19927;-89
2023/01/09 01:33:10;;;;;;;;;;;3.70;88.10;;;-151.14;100.00;62537.16;5031119;28;19921;-89
2023/01/09 01:35:38;;;;;;;;;;;3.70;88.10;;;2.37;100.00;62537.16;5021831;28;19943;-89
2023/01/09 01:38:06;;;;;;;;;;;3.70;88.10;;;-151.14;100.00;62537.16;5031588;28;19921;-89
2023/01/09 01:40:34;;;;;;;;;;;3.70;88.20;;;-151.14;100.00;62537.16;5014925;28;20208;-89
2023/01/09 01:43:04;;;;;;;;;;;3.70;88.20;;;2.34;100.00;62537.16;5030880;28;19927;-89
2023/01/09 01:45:33;;;;;;;;;;;3.70;88.20;;;-151.14;100.00;62537.16;5014785;28;19921;-89
2023/01/09 01:48:02;;;;;;;;;;;3.70;88.20;;;-151.14;100.00;62537.16;5031407;28;19921;-89
2023/01/09 01:50:33;;;;;;;;;;;3.70;88.00;;;-151.14;100.00;62537.16;5014588;28;20124;-89
2023/01/09 01:53:06;;;;;;;;;;;3.70;88.10;;;-151.14;100.00;62537.16;5031047;28;19927;-89
2023/01/09 01:55:34;;;;;;;;;;;3.70;88.10;;;-151.14;100.00;62537.16;5014507;28;19921;-89
2023/01/09 01:58:05;;;;;;;;;;;3.70;88.10;;;-151.14;100.00;62537.16;5014858;28;19928;-89
2023/01/09 02:00:34;;;;;;;;;;;3.70;88.10;;;-151.14;100.00;62537.16;5014570;28;19921;-89
2023/01/09 02:03:02;;;;;;;;;;;3.70;88.00;;;-151.14;100.00;62537.16;5014202;28;19921;-88
2023/01/09 02:05:30;;;;;;;;;;;3.70;88.10;;;-151.14;100.00;62537.16;5014469;28;19921;-87
2023/01/09 02:07:57;;;;;;;;;;;3.70;88.10;;;-151.14;100.00;62537.16;5047908;28;19922;-87
2023/01/09 02:10:25;;;;;;;;;;;3.60;88.00;;;-151.14;100.00;62537.16;5014341;28;19932;-89
2023/01/09 02:12:53;;;;;;;;;;;3.60;88.00;;;-151.14;100.00;62537.16;5047176;28;19929;-89
2023/01/09 02:15:23;;;;;;;;;;;3.70;88.20;;;-151.14;100.00;62537.16;5014215;28;19921;-89
2023/01/09 02:18:01;;;;;;;;;;;3.70;88.20;;;-151.14;100.00;62537.16;5047495;28;19921;-88
2023/01/09 02:20:36;;;;;;;;;;;3.60;88.00;;;-151.14;100.00;62537.16;5014141;28;19927;-89
2023/01/09 02:23:50;;;;;;;;;;;3.70;88.10;;;-151.14;100.00;62537.16;5046564;28;20246;-88
2023/01/09 02:26:51;;;;;;;;;;;3.60;88.00;;;-151.14;100.00;62537.16;4979314;28;20196;-89
2023/01/09 02:29:46;;;;;;;;;;;3.60;88.00;;;-151.14;100.00;62537.16;5030737;28;19921;-89
2023/01/09 02:32:21;;;;;;;;;;;3.60;88.00;;;-151.14;100.00;62537.16;5030936;28;19921;-89
2023/01/09 02:34:54;;;;;;;;;;;3.60;88.00;;;-151.14;100.00;62537.16;5013666;28;20121;-88
2023/01/09 02:37:25;;;;;;;;;;;3.60;88.00;;;2.31;100.00;62537.16;5014323;28;20124;-87
2023/01/09 02:39:56;;;;;;;;;;;3.60;88.00;;;-151.14;100.00;62537.16;5013964;28;19928;-89
2023/01/09 02:42:25;;;;;;;;;;;3.60;88.00;;;-151.14;100.00;62537.16;5014379;28;19928;-89
2023/01/09 02:44:53;;;;;;;;;;;3.60;88.00;;;-151.14;100.00;62537.16;5013520;28;19929;-89
2023/01/09 02:47:42;;;;;;;;;;;3.60;88.00;;;-151.14;100.00;62537.16;5013955;28;20111;-88
2023/01/09 02:50:12;;;;;;;;;;;3.60;88.10;;;-151.14;100.00;62537.16;5013961;28;20246;-88
2023/01/09 02:53:03;;;;;;;;;;;3.60;88.00;;;-151.14;100.00;62537.16;5013538;28;19927;-89
2023/01/09 02:55:39;;;;;;;;;;;3.60;88.00;;;2.29;100.00;62537.16;5013918;28;19921;-87
2023/01/09 02:58:09;;;;;;;;;;;3.60;88.10;;;-151.14;100.00;62537.16;5014200;28;19921;-88
2023/01/09 03:00:41;;;;;;;;;;;3.60;88.10;;;-151.14;100.00;62537.16;5013907;28;19921;-87
2023/01/09 03:03:12;;;;;;;;;;;3.60;88.10;;;-151.14;100.00;62537.16;5013455;28;20151;-87
2023/01/09 03:05:41;;;;;;;;;;;3.60;88.20;;;-151.14;100.00;62537.16;5030297;28;20113;-88
2023/01/09 03:08:13;;;;;;;;;;;3.60;88.10;;;-151.14;100.00;62537.16;5030154;28;19921;-87
2023/01/09 03:10:41;;;;;;;;;;;3.60;88.10;;;-151.14;100.00;62537.16;5013885;28;19921;-88
2023/01/09 03:13:11;;;;;;;;;;;3.60;88.10;;;-151.14;100.00;62537.16;5013119;28;19921;-88
2023/01/09 03:15:39;;;;;;;;;;;3.60;88.20;;;-151.14;100.00;62537.16;5013600;28;19928;-88
2023/01/09 03:18:08;;;;;;;;;;;3.60;88.10;;;-151.14;100.00;62537.16;5014008;28;20212;-87
2023/01/09 03:20:38;;;;;;;;;;;3.60;88.10;;;-151.14;100.00;62537.16;5029833;28;19921;-88
2023/01/09 03:23:06;;;;;;;;;;;3.60;88.10;;;2.29;100.00;62537.16;5029592;28;19921;-88
2023/01/09 03:25:34;;;;;;;;;;;3.60;88.10;;;2.27;100.00;62537.16;5029956;28;19944;-88
2023/01/09 03:28:03;;;;;;;;;;;3.60;88.10;;;-151.14;100.00;62537.16;5013606;28;20120;-87
2023/01/09 03:30:31;;;;;;;;;;;3.60;88.00;;;2.27;100.00;62537.16;5013495;28;19929;-88
2023/01/09 03:33:00;;;;;;;;;;;3.60;88.10;;;-151.14;100.00;62537.16;5013032;28;20259;-88
2023/01/09 03:35:27;;;;;;;;;;;3.60;88.10;;;-151.14;100.00;62537.16;5015170;28;19928;-88
2023/01/09 03:37:57;;;;;;;;;;;3.60;88.10;;;-151.14;100.00;62537.16;5033167;28;19922;-88
2023/01/09 03:40:25;;;;;;;;;;;3.60;88.00;;;-151.14;100.00;62537.16;5016829;28;20121;-88
2023/01/09 03:42:53;;;;;;;;;;;3.60;88.10;;;-151.14;100.00;62537.16;5016409;28;19929;-88
2023/01/09 03:45:21;;;;;;;;;;;3.60;88.00;;;-151.14;100.00;62537.16;5033151;28;20242;-88
2023/01/09 03:47:49;;;;;;;;;;;3.60;88.10;;;-151.14;100.00;62537.16;5034422;28;19921;-88
2023/01/09 03:50:17;;;;;;;;;;;3.60;88.10;;;-151.14;100.00;62537.16;5033009;28;19944;-88
2023/01/09 03:52:45;;;;;;;;;;;3.60;88.00;;;2.24;100.00;62537.16;5033730;28;19921;-88
2023/01/09 03:55:14;;;;;;;;;;;3.60;88.00;;;2.25;100.00;62537.16;5034123;28;19921;-88
2023/01/09 03:57:42;;;;;;;;;;;3.60;88.10;;;-151.14;100.00;62537.16;5016800;28;19921;-89
2023/01/09 04:00:11;;;;;;;;;;;3.60;88.10;;;-151.14;100.00;62537.16;5033405;28;20360;-88
2023/01/09 04:02:42;;;;;;;;;;;3.60;88.10;;;-151.14;100.00;62537.16;5014906;28;19921;-88
2023/01/09 04:05:10;;;;;;;;;;;3.60;88.10;;;2.24;100.00;62537.16;5017105;28;20217;-88
2023/01/09 04:07:38;;;;;;;;;;;3.60;88.10;;;-151.14;100.00;62537.16;5016210;28;20116;-88
2023/01/09 04:10:06;;;;;;;;;;;3.60;88.10;;;-151.14;100.00;62537.16;5032765;28;19921;-88
2023/01/09 04:12:35;;;;;;;;;;;3.60;88.20;;;-151.14;100.00;62537.16;5016061;28;19927;-88
2023/01/09 04:15:04;;;;;;;;;;;3.60;88.10;;;2.24;100.00;83605.56;5033917;28;20090;-87
2023/01/09 04:17:32;;;;;;;;;;;3.60;88.10;;;-151.14;100.00;62537.16;5016305;28;19928;-88
2023/01/09 04:20:00;;;;;;;;;;;3.60;88.10;;;-151.14;100.00;62537.16;5016389;28;19921;-88
2023/01/09 04:22:30;;;;;;;;;;;3.60;88.20;;;-151.14;100.00;62537.16;5032601;28;19927;-88
2023/01/09 04:24:58;;;;;;;;;;;3.60;88.10;;;-151.14;100.00;62537.16;5015798;28;19921;-88
2023/01/09 04:27:26;;;;;;;;;;;3.50;88.20;;;-151.14;100.00;62537.16;5016236;28;19921;-88
2023/01/09 04:29:55;;;;;;;;;;;3.50;88.10;;;18.09;100.00;62537.16;5032632;28;19927;-87
2023/01/09 04:32:23;;;;;;;;;;;3.60;88.10;;;-151.14;100.00;62537.16;5032676;28;19921;-88
2023/01/09 04:34:51;;;;;;;;;;;3.60;88.10;;;-151.14;100.00;62537.16;5015556;28;20123;-88
2023/01/09 04:37:19;;;;;;;;;;;3.50;88.10;;;-151.14;100.00;62537.16;5015701;28;19927;-88
2023/01/09 04:39:47;;;;;;;;;;;3.50;88.10;;;-151.14;100.00;62537.16;5032437;28;19921;-88
2023/01/09 04:42:14;;;;;;;;;;;3.60;88.10;;;2.23;100.00;62537.16;5033363;28;19921;-89
2023/01/09 04:44:42;;;;;;;;;;;3.50;88.10;;;-151.14;100.00;62537.16;5015516;28;20241;-88
2023/01/09 04:47:12;;;;;;;;;;;3.50;88.10;;;-151.14;100.00;62537.16;5015421;28;20246;-88
2023/01/09 04:49:40;;;;;;;;;;;3.50;88.10;;;-151.14;100.00;62537.16;5015780;28;19928;-87
2023/01/09 04:52:08;;;;;;;;;;;3.50;88.10;;;-151.14;100.00;62537.16;5015665;28;19929;-86
2023/01/09 04:54:38;;;;;;;;;;;3.50;88.10;;;2.20;100.00;62537.16;5015197;28;19921;-87
2023/01/09 04:57:06;;;;;;;;;;;3.50;88.10;;;-151.14;100.00;62537.16;5015655;28;20216;-88
2023/01/09 04:59:34;;;;;;;;;;;3.50;88.10;;;-151.14;100.00;62537.16;5027052;28;19921;-88
2023/01/09 05:02:02;;;;;;;;;;;3.50;88.10;;;-151.14;100.00;62537.16;5015592;28;19921;-88
2023/01/09 05:04:31;;;;;;;;;;;3.50;88.20;;;-151.14;100.00;62537.16;5031555;28;19921;-88
2023/01/09 05:06:59;;;;;;;;;;;3.50;88.10;;;-151.14;100.00;62537.16;5031944;28;19927;-87
2023/01/09 05:09:27;;;;;;;;;;;3.50;88.20;;;-151.14;100.00;62537.16;5032080;28;19921;-88
2023/01/09 05:11:55;;;;;;;;;;;3.50;88.10;;;-151.14;100.00;62537.16;5032026;28;19921;-88
2023/01/09 05:14:23;;;;;;;;;;;3.50;88.10;;;-151.14;100.00;62537.16;5031569;28;20250;-88
2023/01/09 05:16:51;;;;;;;;;;;3.50;88.20;;;-151.14;100.00;62537.16;5015564;28;19928;-88
2023/01/09 05:19:19;;;;;;;;;;;3.50;88.10;;;-151.14;100.00;62537.16;5015595;28;19928;-88
2023/01/09 05:21:48;;;;;;;;;;;3.50;88.10;;;-151.14;100.00;62537.16;5015525;28;20217;-88
2023/01/09 05:24:16;;;;;;;;;;;3.50;88.10;;;-151.14;100.00;62537.16;5014951;28;19948;-88
2023/01/09 05:26:44;;;;;;;;;;;3.50;88.10;;;-151.14;100.00;62537.16;5031781;28;19927;-88
2023/01/09 05:29:12;;;;;;;;;;;3.50;88.10;;;-151.14;100.00;62537.16;5015512;28;19927;-87
2023/01/09 05:31:40;;;;;;;;;;;3.50;88.20;;;-151.14;100.00;62537.16;5031960;28;19921;-87
2023/01/09 05:34:08;;;;;;;;;;;3.50;88.20;;;-151.14;100.00;62537.16;5014813;28;20101;-88
2023/01/09 05:36:36;;;;;;;;;;;3.50;88.10;;;-151.14;100.00;62537.16;5015241;28;20121;-88
2023/01/09 05:39:06;;;;;;;;;;;3.50;88.00;;;-151.14;100.00;62537.16;5031839;28;19921;-87
2023/01/09 05:41:34;;;;;;;;;;;3.50;88.00;;;-151.14;100.00;62537.16;5031726;28;19927;-88
2023/01/09 05:44:03;;;;;;;;;;;3.50;88.10;;;-151.14;100.00;62537.16;5014745;28;19928;-88
2023/01/09 05:46:31;;;;;;;;;;;3.50;88.10;;;18.09;100.00;62537.16;5031368;28;19921;-88
2023/01/09 05:48:59;;;;;;;;;;;3.50;88.10;;;-151.14;100.00;62537.16;5015170;28;19922;-88
2023/01/09 05:51:27;;;;;;;;;;;3.50;88.10;;;-151.14;100.00;62537.16;5031650;28;19928;-88
2023/01/09 05:53:55;;;;;;;;;;;3.50;88.10;;;-151.14;100.00;62537.16;5014524;28;19925;-87
2023/01/09 05:56:24;;;;;;;;;;;3.50;88.10;;;-151.14;100.00;62537.16;5015055;28;20209;-88
2023/01/09 05:58:52;;;;;;;;;;;3.50;88.10;;;-151.14;100.00;62537.16;5014104;28;20224;-87
2023/01/09 06:01:20;;;;;;;;;;;3.50;88.10;;;-151.14;100.00;62537.16;5031275;28;19921;-88
2023/01/09 06:03:48;;;;;;;;;;;3.50;88.10;;;-151.14;100.00;62537.16;5030461;28;19987;-88
2023/01/09 06:06:16;;;;;;;;;;;3.50;88.00;;;-151.14;100.00;62537.16;5030994;28;20095;-88
2023/01/09 06:08:44;;;;;;;;;;;3.50;88.00;;;-151.14;100.00;62537.16;5014796;28;19928;-88
2023/01/09 06:11:12;;;;;;;;;;;3.50;88.10;;;-151.14;100.00;62537.16;5031238;28;19940;-88
2023/01/09 06:13:41;;;;;;;;;;;3.50;88.10;;;2.17;100.00;62537.16;5014214;28;19928;-88
2023/01/09 06:16:09;;;;;;;;;;;3.50;88.10;;;-151.14;100.00;62537.16;5031008;28;20101;-88
2023/01/09 06:18:37;;;;;;;;;;;3.50;88.10;;;-151.14;100.00;62537.16;5014854;28;20120;-88
2023/01/09 06:21:05;;;;;;;;;;;3.50;88.00;;;-151.14;100.00;62537.16;5014656;28;19927;-88
2023/01/09 06:23:33;;;;;;;;;;;3.50;88.10;;;-151.14;100.00;62537.16;5030649;28;19921;-88
2023/01/09 06:26:01;;;;;;;;;;;3.50;88.10;;;-151.14;100.00;62537.16;5031042;28;20095;-88
2023/01/09 06:28:29;;;;;;;;;;;3.50;88.00;;;-151.14;100.00;62537.16;5014493;28;20216;-88
2023/01/09 06:30:58;;;;;;;;;;;3.50;88.00;;;-151.14;100.00;62537.16;5014519;28;19927;-87
2023/01/09 06:33:26;;;;;;;;;;;3.50;88.10;;;-151.14;100.00;62537.16;5013876;28;19921;-89
2023/01/09 06:35:54;;;;;;;;;;;3.50;88.00;;;-151.14;100.00;62537.16;5030748;28;20258;-88
2023/01/09 06:38:22;;;;;;;;;;;3.50;87.90;;;-151.14;100.00;62537.16;5030883;28;20065;-88
2023/01/09 06:40:50;;;;;;;;;;;3.50;88.10;;;-151.14;100.00;62537.16;5030692;28;19923;-88
2023/01/09 06:43:18;;;;;;;;;;;3.50;88.00;;;-151.14;100.00;62537.16;5013716;28;19922;-87
2023/01/09 06:45:46;;;;;;;;;;;3.50;88.00;;;-151.14;100.00;62537.16;5030672;28;19921;-88
2023/01/09 06:48:15;;;;;;;;;;;3.50;88.00;;;-151.14;100.00;62537.16;5014263;28;20120;-88
2023/01/09 06:50:44;;;;;;;;;;;3.50;87.90;;;-151.14;100.00;62537.16;5030756;28;19929;-88
2023/01/09 06:53:12;;;;;;;;;;;3.50;88.00;;;-151.14;100.00;62537.16;5030185;28;19928;-88
2023/01/09 06:55:40;;;;;;;;;;;3.50;87.80;;;-151.14;100.00;62537.16;5030374;28;19921;-88
2023/01/09 06:58:08;;;;;;;;;;;3.50;87.80;;;-151.14;100.00;62537.16;5014069;28;19921;-89
2023/01/09 07:00:36;;;;;;;;;;;3.50;87.80;;;-151.14;100.00;62537.16;5047160;28;20209;-87
2023/01/09 07:03:04;;;;;;;;;;;3.50;87.70;;;-151.14;100.00;62537.16;5029851;28;20120;-87
2023/01/09 07:05:34;;;;;;;;;;;3.50;87.70;;;-151.14;100.00;62537.16;5013951;28;19928;-88
2023/01/09 07:08:03;;;;;;;;;;;3.50;87.70;;;-151.14;100.00;62537.16;5013941;28;19928;-88
2023/01/09 07:10:30;;;;;;;;;;;3.50;87.70;;;-151.14;100.00;62537.16;5050365;28;19921;-87
2023/01/09 07:12:58;;;;;;;;;;;3.50;87.70;;;-151.14;100.00;62537.16;5033353;28;19929;-88
2023/01/09 07:15:26;;;;;;;;;;;3.50;87.70;;;18.09;100.00;62537.16;5033830;28;19921;-88
2023/01/09 07:17:54;;;;;;;;;;;3.50;87.60;;;-151.14;100.00;62537.16;5033939;28;19921;-88
2023/01/09 07:20:22;;;;;;;;;;;3.50;87.60;;;-151.14;100.00;62537.16;5017485;28;19928;-87
2023/01/09 07:22:52;;;;;;;;;;;3.50;87.60;;;-151.14;100.00;62537.16;5033391;28;19929;-88
2023/01/09 07:25:20;;;;;;;;;;;3.50;87.60;;;-151.14;100.00;62537.16;5017166;28;19921;-88
2023/01/09 07:27:48;;;;;;;;;;;3.60;87.70;;;-151.14;100.00;62537.16;5017484;28;19921;-88
2023/01/09 07:30:17;;;;;;;;;;;3.60;87.60;;;-151.14;100.00;62537.16;5033662;28;19921;-88
2023/01/09 07:32:45;;;;;;;;;;;3.60;87.50;;;-151.14;100.00;62537.16;5016693;28;19921;-88
2023/01/09 07:35:13;;;;;;;;;;;3.60;87.40;;;2.25;100.00;62537.16;5033412;28;19928;-88
2023/01/09 07:37:41;;;;;;;;;;;3.60;87.50;;;-151.14;100.00;62537.16;5016989;28;19927;-88
2023/01/09 07:40:12;;;;;;;;;;;3.60;87.40;;;-151.14;100.00;62537.16;5050281;28;19928;-88
2023/01/09 07:42:40;;;;;;;;;;;3.60;87.20;;;-151.14;100.00;62537.16;5016436;28;20236;-88
2023/01/09 07:45:08;;;;;;;;;;;3.60;87.20;;;-151.14;100.00;62537.16;5033570;28;19921;-88
2023/01/09 07:47:36;;;;;;;;;;;3.60;87.20;;;18.10;100.00;62537.16;5016860;28;19921;-87
2023/01/09 07:50:05;;;;;;;;;;;3.60;87.20;;;-151.14;100.00;62537.16;5033266;28;19927;-88
2023/01/09 07:52:33;;;;;;;;;;;3.60;87.00;;;2.30;100.00;62537.16;5032931;28;19921;-89
2023/01/09 07:55:01;;;;;;;;;;;3.60;87.00;;;-151.14;100.00;62537.16;5016808;28;19921;-88
2023/01/09 07:57:30;;;;;;;;;;;3.60;87.10;;;-151.14;100.00;62537.16;5016581;28;19927;-88
2023/01/09 07:59:59;;;;;;;;;;;3.60;87.00;;;2.28;100.00;62537.16;5016918;28;19921;-88
2023/01/09 08:02:28;;;;;;;;;;;3.60;87.10;;;-151.14;100.00;62537.16;5016719;28;19921;-88
2023/01/09 08:04:56;;;;;;;;;;;3.60;87.00;;;2.30;100.00;62537.16;5016370;28;19928;-87
2023/01/09 08:07:23;;;;;;;;;;;3.60;87.00;;;-151.14;100.00;62537.16;5033075;28;19921;-88
2023/01/09 08:09:51;;;;;;;;;;;3.60;87.20;;;2.29;100.00;62537.16;5033070;28;20119;-88
2023/01/09 08:12:19;;;;;;;;;;;3.60;87.20;;;-151.14;100.00;62537.16;5016564;28;19921;-88
2023/01/09 08:14:50;;;;;;;;;;;3.60;87.10;;;18.10;100.00;62537.16;5032453;28;20112;-88
2023/01/09 08:17:18;;;;;;;;;;;3.60;87.10;;;-151.14;100.00;62537.16;5032883;28;20205;-88
2023/01/09 08:19:45;;;;;;;;;;;3.60;87.10;;;-151.14;100.00;62537.16;5016367;28;20208;-88
2023/01/09 08:22:13;;;;;;;;;;;3.60;87.20;;;-151.14;100.00;62537.16;5032330;28;19928;-88
2023/01/09 08:24:41;;;;;;;;;;;3.60;87.00;;;-151.14;100.00;62537.16;5015762;28;19921;-87
2023/01/09 08:27:09;;;;;;;;;;;3.60;87.00;;;-151.14;100.00;62537.16;5032730;28;19921;-88
2023/01/09 08:29:37;;;;;;;;;;;3.60;87.00;;;-151.14;100.00;62537.16;5016607;28;19921;-87
2023/01/09 08:32:07;;;;;;;;;;;3.60;87.10;;;-151.14;100.00;62537.16;5016309;28;19921;-89
2023/01/09 08:34:35;;;;;;;;;;;3.60;87.10;;;-151.14;100.00;62537.16;5032307;28;19921;-88
2023/01/09 08:37:03;;;;;;;;;;;3.60;87.00;;;-151.14;100.00;62537.16;5049308;28;19928;-88
2023/01/09 08:39:31;;;;;;;;;;;3.60;87.10;;;-151.14;100.00;62537.16;5016222;28;19921;-88
2023/01/09 08:47:32;;;;;;;;;;;3.60;87.10;;;2.32;100.00;62537.16;5015932;28;19938;-88
2023/01/09 08:50:00;;;;;;;;;;;3.60;87.00;;;2.34;100.00;62537.16;5016069;28;19921;-89
2023/01/09 08:52:29;;;;;;;;;;;3.70;87.00;;;-151.14;100.00;62537.16;5015982;28;19921;-89
2023/01/09 08:54:57;;;;;;;;;;;3.70;86.90;;;-151.14;100.00;62537.16;5032061;28;19921;-88
2023/01/09 08:57:25;;;;;;;;;;;3.70;86.80;;;-151.14;100.00;62537.16;5032512;28;19921;-88
2023/01/09 08:59:53;;;;;;;;;;;3.80;86.70;;;-151.14;100.00;62537.16;5016008;28;19921;-89
2023/01/09 09:02:21;;;;;;;;;;;3.80;86.50;;;-151.14;100.00;62537.16;5015952;28;19945;-89
2023/01/09 09:04:51;;;;;;;;;;;3.80;86.40;;;-151.14;100.00;62537.16;5015250;28;19935;-88
2023/01/09 09:07:25;;;;;;;;;;;3.80;86.40;;;-151.14;100.00;62537.16;5015758;28;19921;-88
2023/01/09 09:09:53;;;;;;;;;;;3.80;86.40;;;-151.14;100.00;62537.16;5032293;28;20213;-89
2023/01/09 09:12:21;;;;;;;;;;;3.90;86.50;;;-151.14;100.00;62537.16;5015859;28;19987;-89
2023/01/09 09:17:34;;;;;;;;;;;3.90;86.40;;;-151.14;100.00;62537.16;5015709;28;19928;-89
2023/01/09 09:20:05;;;;;;;;;;;3.90;86.40;;;2.56;100.00;62537.16;5032106;28;19921;-89
2023/01/09 09:22:33;;;;;;;;;;;3.90;86.40;;;2.61;100.00;62537.16;5032073;28;20209;-89
2023/01/09 09:25:01;;;;;;;;;;;3.90;86.30;;;2.57;100.00;62537.16;5015607;28;19922;-89
2023/01/09 09:27:29;;;;;;;;;;;3.90;86.30;;;-151.14;100.00;62537.16;5032054;28;19927;-90
2023/01/09 09:29:57;;;;;;;;;;;3.90;86.30;;;-151.14;100.00;62537.16;5015272;28;19927;-90
2023/01/09 09:32:25;;;;;;;;;;;3.90;86.20;;;-151.14;100.00;62537.16;5030696;28;19931;-89
2023/01/09 09:34:53;;;;;;;;;;;3.90;86.20;;;2.56;100.00;62537.16;5015019;28;19943;-89
2023/01/09 09:37:22;;;;;;;;;;;3.90;86.10;;;-151.14;100.00;62537.16;5015510;28;19927;-89
2023/01/09 09:39:50;;;;;;;;;;;3.90;86.20;;;-151.14;100.00;62537.16;5031816;28;19927;-89
2023/01/09 09:45:47;;;;;;;;;;;3.90;86.10;;;2.57;100.00;62537.16;4978495;28;20133;-89
2023/01/09 09:48:22;;;;;;;;;;;3.90;86.10;;;2.56;100.00;62537.16;5007594;28;19927;-89
2023/01/09 09:51:14;;;;;;;;;;;3.90;86.20;;;-151.14;100.00;62537.16;5031949;28;19921;-89
2023/01/09 09:53:46;;;;;;;;;;;3.90;86.30;;;-151.14;100.00;62537.16;5027855;28;19928;-89
2023/01/09 09:56:15;;;;;;;;;;;3.90;86.30;;;-151.14;100.00;62537.16;5015292;28;20098;-89
2023/01/09 09:58:44;;;;;;;;;;;3.90;86.30;;;2.59;100.00;62537.16;5015261;28;19921;-90
2023/01/09 10:01:15;;;;;;;;;;;3.90;86.20;;;2.59;100.00;62537.16;5015281;28;19921;-90
2023/01/09 10:03:44;;;;;;;;;;;4.00;86.20;;;-151.14;100.00;62537.16;5014664;28;20119;-90
2023/01/09 10:06:15;;;;;;;;;;;4.00;86.20;;;2.60;100.00;62537.16;5015026;28;19921;-90
2023/01/09 10:08:47;;;;;;;;;;;4.00;86.30;;;-151.14;100.00;62537.16;5031630;28;20128;-90
2023/01/09 10:11:17;;;;;;;;;;;4.00;86.20;;;-151.14;100.00;62537.16;5015129;28;19921;-90
2023/01/09 10:16:39;;;;;;;;;;;4.00;86.20;;;-151.14;100.00;62537.16;5014939;28;19922;-90
2023/01/09 10:19:11;;;;;;;;;;;4.00;86.30;;;2.60;100.00;62537.16;5015014;28;19921;-90
2023/01/09 10:21:40;;;;;;;;;;;4.00;86.20;;;2.60;100.00;62537.16;5014935;28;19925;-90
2023/01/09 10:24:15;;;;;;;;;;;4.00;86.20;;;2.59;100.00;62537.16;5010953;28;19921;-90
2023/01/09 10:26:47;;;;;;;;;;;4.00;86.20;;;-151.14;100.00;62537.16;5011644;28;20209;-90
2023/01/09 10:29:28;;;;;;;;;;;4.00;86.20;;;;;;5011413;28;19929;-90
2023/01/09 10:32:02;;;;;;;;;;;4.00;86.20;;;-151.14;100.00;62537.16;5011716;28;20213;-90
2023/01/09 10:34:37;;;;;;;;;;;4.00;86.10;;;-151.14;100.00;62537.16;4994651;28;19927;-90
2023/01/09 10:37:08;;;;;;;;;;;4.00;86.20;;;-151.14;100.00;62537.16;4995201;28;19921;-90
2023/01/09 10:39:40;;;;;;;;;;;3.90;86.10;;;-151.14;100.00;62537.16;5011590;28;19921;-90
2023/01/09 10:42:11;;;;;;;;;;;4.00;86.20;;;-151.14;100.00;62537.16;5011253;28;20459;-90
2023/01/09 10:44:44;;;;;;;;;;;3.90;87.00;;;-151.14;100.00;62537.16;5010398;28;20102;-89
2023/01/09 10:47:15;;;;;;;;;;;3.90;86.20;;;-151.14;100.00;62537.16;5011223;28;19921;-90
2023/01/09 10:49:44;;;;;;;;;;;3.90;86.20;;;-151.14;100.00;62537.16;5011605;28;19928;-91
2023/01/09 10:52:15;;;;;;;;;;;3.90;86.10;;;18.10;100.00;62537.16;4995030;28;20235;-90
2023/01/09 10:54:49;;;;;;;;;;;3.90;86.20;;;-151.14;100.00;62537.16;5027543;28;19922;-91
2023/01/09 10:57:24;;;;;;;;;;;3.90;86.20;;;-151.14;100.00;62537.16;5011237;28;19921;-91
2023/01/09 10:59:52;;;;;;;;;;;3.90;86.20;;;-151.14;100.00;62537.16;4994966;28;19921;-90
2023/01/09 11:02:24;;;;;;;;;;;3.90;86.30;;;-151.14;100.00;62537.16;4995049;28;20213;-91
2023/01/09 11:04:52;;;;;;;;;;;3.90;86.20;;;-151.14;100.00;62537.16;4994786;28;19928;-91
2023/01/09 11:07:21;;;;;;;;;;;3.90;86.20;;;2.49;100.00;62537.16;5011304;28;19921;-89
2023/01/09 11:09:56;;;;;;;;;;;3.90;86.20;;;-151.14;100.00;62537.16;5010836;28;20312;-90
2023/01/09 11:12:26;;;;;;;;;;;3.90;86.20;;;-151.14;100.00;62537.16;4994757;28;19921;-90
2023/01/09 11:14:54;;;;;;;;;;;3.80;86.20;;;-151.14;100.00;62537.16;5011113;28;19941;-90
2023/01/09 11:17:22;;;;;;;;;;;3.80;86.10;;;-151.14;100.00;62537.16;5010818;28;19921;-91
2023/01/09 11:20:04;;;;;;;;;;;3.80;86.00;;;2.47;100.00;62537.16;5011001;28;19921;-90
2023/01/09 11:22:42;;;;;;;;;;;3.80;86.10;;;-151.14;100.00;62537.16;5010905;28;20129;-91
2023/01/09 11:25:14;;;;;;;;;;;3.80;86.10;;;-151.14;100.00;62537.16;5027391;28;19928;-90
2023/01/09 11:27:45;;;;;;;;;;;3.80;86.10;;;2.48;100.00;62537.16;5011047;28;19922;-90
2023/01/09 11:30:15;;;;;;;;;;;3.80;86.10;;;2.47;100.00;62537.16;5010953;28;19923;-91
2023/01/09 11:32:43;;;;;;;;;;;3.80;86.10;;;-151.14;100.00;62537.16;5010774;28;19921;-90
2023/01/09 11:35:30;;;;;;;;;;;3.80;86.10;;;-151.14;100.00;62537.16;5010802;28;19922;-90